Time;durP1;ratioP1;P1;durP2;ratioP2;P2;SDS_P1;SDS_P2;PMS_P1;PMS_P2;Temp;Humidity;BMP_temperature;BMP_pressure;BME280_temperature;BME280_humidity;BME280_pressure;Samples;Min_cycle;Max_cycle;Signal;HPM_P1;HPM_P2
2022/03/02 00:02:20;;;;;;;29.05;18.73;;;;;;;2.36;76.83;100204.34;4977962;28;20570;-76
2022/03/02 00:04:47;;;;;;;25.77;16.70;;;;;;;2.30;77.86;100210.63;4978024;28;20185;-76
2022/03/02 00:07:13;;;;;;;27.77;17.48;;;;;;;2.23;78.23;100220.44;4978158;28;20633;-75
2022/03/02 00:09:40;;;;;;;23.38;16.05;;;;;;;2.12;79.08;100213.53;4978122;28;20195;-75
2022/03/02 00:12:08;;;;;;;26.40;16.83;;;;;;;2.23;78.45;100209.81;4977511;28;20195;-75
2022/03/02 00:14:35;;;;;;;29.67;16.98;;;;;;;2.43;77.38;100214.84;4977686;28;20276;-75
2022/03/02 00:17:02;;;;;;;22.92;15.38;;;;;;;2.60;74.76;100206.63;4977940;28;20678;-74
2022/03/02 00:19:28;;;;;;;24.48;15.95;;;;;;;2.75;72.56;100204.63;4977863;28;20726;-75
2022/03/02 00:21:56;;;;;;;27.10;16.40;;;;;;;2.79;71.55;100199.22;4977547;28;20188;-76
2022/03/02 00:24:22;;;;;;;28.95;17.13;;;;;;;2.60;73.03;100198.66;4977623;28;20199;-75
2022/03/02 00:26:49;;;;;;;30.33;17.35;;;;;;;2.44;73.83;100197.13;4977269;28;20202;-75
2022/03/02 00:29:17;;;;;;;28.20;16.80;;;;;;;2.32;74.78;100194.66;4977334;28;20188;-75
2022/03/02 00:31:44;;;;;;;26.55;17.88;;;;;;;2.42;75.11;100197.16;4977159;28;20593;-75
2022/03/02 00:34:10;;;;;;;30.30;17.98;;;;;;;2.41;74.86;100199.84;4977544;28;20582;-76
2022/03/02 00:36:37;;;;;;;32.15;22.42;;;;;;;2.54;74.78;100188.13;4977146;28;20208;-75
2022/03/02 00:39:04;;;;;;;29.02;17.65;;;;;;;2.55;74.31;100187.19;4977304;28;20299;-76
2022/03/02 00:41:30;;;;;;;28.95;17.40;;;;;;;2.45;74.29;100191.78;4977411;28;20551;-75
2022/03/02 00:43:57;;;;;;;27.45;16.95;;;;;;;2.42;74.90;100190.94;4977374;28;20235;-74
2022/03/02 00:46:29;;;;;;;26.80;19.08;;;;;;;2.32;75.63;100186.69;4977040;28;20227;-74
2022/03/02 00:48:56;;;;;;;27.00;16.88;;;;;;;2.18;76.53;100184.22;4977487;28;20639;-75
2022/03/02 00:51:23;;;;;;;21.05;16.67;;;;;;;2.36;75.27;100175.13;4976015;28;20214;-75
2022/03/02 00:53:50;;;;;;;25.17;16.02;;;;;;;2.52;73.71;100167.78;4977158;28;20280;-75
2022/03/02 00:56:17;;;;;;;27.65;15.98;;;;;;;2.42;73.89;100170.59;4976950;28;20275;-75
2022/03/02 00:58:44;;;;;;;24.98;16.30;;;;;;;2.36;74.42;100177.78;4976905;28;20243;-76
2022/03/02 01:01:10;;;;;;;25.63;16.90;;;;;;;2.23;76.25;100164.66;4976787;28;20295;-76
2022/03/02 01:03:38;;;;;;;28.75;17.75;;;;;;;2.46;75.26;100161.63;4976541;28;20188;-75
2022/03/02 01:06:05;;;;;;;28.55;17.90;;;;;;;2.42;75.53;100156.38;4976923;28;20188;-75
2022/03/02 01:08:32;;;;;;;24.15;16.95;;;;;;;2.21;76.86;100161.13;4976983;28;20227;-74
2022/03/02 01:10:59;;;;;;;26.13;17.02;;;;;;;2.23;78.35;100151.38;4976642;28;20189;-75
2022/03/02 01:13:26;;;;;;;25.42;16.85;;;;;;;2.25;77.75;100156.66;4976944;28;20275;-75
2022/03/02 01:15:53;;;;;;;24.90;16.80;;;;;;;2.27;77.93;100154.88;4976643;28;20210;-74
2022/03/02 01:18:20;;;;;;;24.52;17.23;;;;;;;2.05;80.06;100154.31;4975673;28;20546;-75
2022/03/02 01:20:48;;;;;;;22.88;16.83;;;;;;;2.12;80.72;100149.78;4976742;28;20202;-76
2022/03/02 01:23:14;;;;;;;31.15;17.90;;;;;;;2.15;79.89;100144.41;4976734;28;20628;-74
2022/03/02 01:25:41;;;;;;;26.35;16.45;;;;;;;2.28;79.67;100146.88;4976593;28;20608;-75
2022/03/02 01:28:08;;;;;;;25.38;17.25;;;;;;;2.28;79.33;100141.56;4976136;28;20188;-76
2022/03/02 01:30:34;;;;;;;27.23;16.75;;;;;;;2.09;83.14;100140.06;4976528;28;20591;-74
2022/03/02 01:33:01;;;;;;;26.90;16.08;;;;;;;2.18;81.02;100134.63;4976300;28;20280;-75
2022/03/02 01:35:27;;;;;;;21.88;15.82;;;;;;;2.00;82.49;100137.56;4976634;28;20192;-75
2022/03/02 01:37:56;;;;;;;26.83;16.88;;;;;;;1.87;81.93;100136.84;4976043;28;20231;-76
2022/03/02 01:40:23;;;;;;;25.27;15.85;;;;;;;1.69;83.82;100135.31;4976331;28;20696;-75
2022/03/02 01:42:50;;;;;;;24.10;16.73;;;;;;;1.71;82.76;100133.53;4976186;28;20262;-75
2022/03/02 01:45:18;;;;;;;24.92;15.57;;;;;;;1.55;83.24;100131.97;4975876;28;20214;-75
2022/03/02 01:47:44;;;;;;;27.58;17.15;;;;;;;1.54;84.35;100117.84;4976149;28;20184;-75
2022/03/02 01:50:14;;;;;;;28.02;16.63;;;;;;;1.72;84.20;100123.78;4975821;28;20280;-75
2022/03/02 01:52:41;;;;;;;25.65;16.30;;;;;;;1.65;84.03;100123.88;4976056;28;20204;-75
2022/03/02 01:55:11;;;;;;;25.00;15.98;;;;;;;1.56;84.97;100123.09;4976062;28;20200;-74
2022/03/02 01:57:37;;;;;;;25.30;17.23;;;;;;;1.75;84.52;100118.44;4975792;28;20208;-74
2022/03/02 02:00:06;;;;;;;25.23;16.13;;;;;;;1.54;84.48;100114.28;4975570;28;20296;-74
2022/03/02 02:02:33;;;;;;;28.23;17.00;;;;;;;1.43;85.89;100114.44;4975431;28;20280;-75
2022/03/02 02:05:00;;;;;;;25.95;16.33;;;;;;;1.46;86.30;100117.03;4975818;28;20613;-74
2022/03/02 02:07:27;;;;;;;27.42;16.65;;;;;;;1.48;85.37;100104.63;4975668;28;20210;-75
2022/03/02 02:09:57;;;;;;;25.05;15.52;;;;;;;1.45;84.91;100104.69;4975763;28;20196;-75
2022/03/02 02:12:25;;;;;;;26.30;15.02;;;;;;;1.48;84.55;100085.19;4975451;28;20291;-74
2022/03/02 02:14:52;;;;;;;23.27;14.70;;;;;;;1.39;84.74;100095.00;4974738;28;20294;-74
2022/03/02 02:17:19;;;;;;;25.17;15.70;;;;;;;1.50;84.11;100094.00;4975277;28;20215;-74
2022/03/02 02:19:45;;;;;;;24.73;14.48;;;;;;;1.53;83.68;100091.31;4975572;28;20194;-74
2022/03/02 02:22:13;;;;;;;21.48;15.52;;;;;;;1.60;83.14;100083.22;4975550;28;20207;-74
2022/03/02 02:24:40;;;;;;;21.58;14.63;;;;;;;1.68;82.57;100085.78;4975349;28;20188;-74
2022/03/02 02:27:07;;;;;;;22.25;14.07;;;;;;;1.86;81.33;100066.94;4975484;28;20540;-74
2022/03/02 02:29:35;;;;;;;24.70;15.90;;;;;;;1.94;80.63;100061.50;4975330;28;20614;-74
2022/03/02 02:32:02;;;;;;;21.60;14.27;;;;;;;1.87;81.06;100059.84;4974994;28;20238;-74
2022/03/02 02:34:29;;;;;;;25.58;16.52;;;;;;;1.77;81.09;100048.47;4974902;28;20298;-74
2022/03/02 02:36:56;;;;;;;25.45;15.73;;;;;;;1.45;82.83;100049.81;4975311;28;20706;-75
2022/03/02 02:39:26;;;;;;;23.90;14.90;;;;;;;1.38;84.88;100050.81;4975038;28;20279;-75
2022/03/02 02:41:53;;;;;;;25.17;15.52;;;;;;;1.35;85.11;100044.66;4974988;28;20696;-74
2022/03/02 02:44:21;;;;;;;24.23;14.90;;;;;;;1.43;84.67;100042.78;4974638;28;20287;-74
2022/03/02 02:46:47;;;;;;;19.63;14.23;;;;;;;1.37;84.58;100049.03;4974595;28;20275;-75
2022/03/02 02:49:14;;;;;;;24.30;15.40;;;;;;;1.28;86.07;100037.69;4974868;28;20208;-77
2022/03/02 02:51:40;;;;;;;22.55;17.20;;;;;;;1.44;85.34;100045.41;4974966;28;20208;-75
2022/03/02 02:54:07;;;;;;;22.92;15.82;;;;;;;1.42;85.54;100038.38;4974545;28;20208;-75
2022/03/02 02:56:35;;;;;;;23.38;14.65;;;;;;;1.42;85.64;100035.72;4974880;28;20210;-74
2022/03/02 02:59:03;;;;;;;21.65;15.35;;;;;;;1.37;86.48;100029.59;4974408;28;20749;-76
2022/03/02 03:01:30;;;;;;;23.95;14.98;;;;;;;1.25;87.56;100028.88;4974401;28;20206;-75
2022/03/02 03:03:57;;;;;;;20.38;14.32;;;;;;;1.32;87.83;100029.66;4974378;28;20197;-76
2022/03/02 03:06:24;;;;;;;25.08;15.43;;;;;;;1.35;87.32;100024.31;4974682;28;20699;-74
2022/03/02 03:08:51;;;;;;;20.77;13.88;;;;;;;1.49;86.50;100031.19;4974476;28;20286;-75
2022/03/02 03:11:19;;;;;;;22.13;13.55;;;;;;;1.46;85.12;100034.78;4974666;28;20185;-74
2022/03/02 03:13:47;;;;;;;22.42;14.50;;;;;;;1.27;84.87;100022.66;4974613;28;20190;-75
2022/03/02 03:16:14;;;;;;;25.98;16.25;;;;;;;1.13;86.76;100017.53;4974639;28;20206;-75
2022/03/02 03:18:40;;;;;;;21.92;14.02;;;;;;;1.17;87.50;100030.72;4974000;28;20299;-75
2022/03/02 03:21:07;;;;;;;20.85;14.10;;;;;;;1.19;86.62;100025.41;4974302;28;20194;-76
2022/03/02 03:23:34;;;;;;;24.13;14.90;;;;;;;1.30;85.33;100028.81;4974538;28;20677;-76
2022/03/02 03:26:01;;;;;;;20.40;13.52;;;;;;;1.36;83.93;100023.41;4974467;28;20192;-76
2022/03/02 03:28:28;;;;;;;20.42;14.32;;;;;;;1.53;82.47;100017.84;4974526;28;20199;-76
2022/03/02 03:30:56;;;;;;;24.20;13.75;;;;;;;1.78;80.38;100012.19;4974129;28;20231;-75
2022/03/02 03:33:23;;;;;;;24.48;13.30;;;;;;;1.57;80.50;100008.97;4974313;28;20216;-76
2022/03/02 03:35:50;;;;;;;18.33;13.10;;;;;;;1.42;82.78;100020.66;4974205;28;20291;-76
2022/03/02 03:38:16;;;;;;;28.70;14.65;;;;;;;1.50;83.22;100017.03;4974228;28;20218;-75
2022/03/02 03:40:43;;;;;;;22.23;13.10;;;;;;;1.58;82.51;100021.34;4974008;28;20210;-75
2022/03/02 03:43:10;;;;;;;21.05;13.85;;;;;;;1.69;81.61;100029.13;4974198;28;20644;-76
2022/03/02 03:45:36;;;;;;;21.08;13.13;;;;;;;1.65;80.83;100025.66;4974238;28;20210;-75
2022/03/02 03:48:05;;;;;;;19.42;13.73;;;;;;;1.82;80.46;100027.16;4974182;28;20180;-75
2022/03/02 03:50:32;;;;;;;17.77;12.82;;;;;;;2.19;76.39;100030.09;4973796;28;20193;-75
2022/03/02 03:52:58;;;;;;;15.52;11.55;;;;;;;2.30;71.86;100044.06;4956967;28;20295;-76
2022/03/02 03:55:25;;;;;;;20.92;12.95;;;;;;;2.00;76.72;100034.84;4954697;29;20284;-76
2022/03/02 03:57:52;;;;;;;21.55;13.80;;;;;;;1.95;78.77;100038.50;4954401;29;20212;-75
2022/03/02 04:00:20;;;;;;;22.02;13.85;;;;;;;1.72;79.77;100031.75;4954123;29;20297;-74
2022/03/02 04:02:47;;;;;;;19.13;14.32;;;;;;;1.73;79.33;100030.84;4954386;29;20549;-74
2022/03/02 04:05:16;;;;;;;21.55;13.88;;;;;;;1.56;81.84;100033.75;4954307;29;20714;-74
2022/03/02 04:07:44;;;;;;;22.58;13.10;;;;;;;1.53;82.53;100032.91;4954558;28;20201;-75
2022/03/02 04:10:11;;;;;;;24.67;14.02;;;;;;;1.54;82.57;100035.56;4954518;29;20196;-74
2022/03/02 04:12:38;;;;;;;20.38;13.60;;;;;;;1.59;81.94;100030.19;4954311;29;20277;-75
2022/03/02 04:15:06;;;;;;;20.00;13.75;;;;;;;1.36;82.05;100030.50;4968229;28;20289;-75
2022/03/02 04:17:33;;;;;;;18.08;13.25;;;;;;;1.27;81.89;100020.91;4961319;28;20291;-75
2022/03/02 04:19:59;;;;;;;18.30;13.45;;;;;;;1.11;83.42;100028.19;4965444;28;20199;-75
2022/03/02 04:22:27;;;;;;;22.60;13.88;;;;;;;1.08;84.34;100024.69;4974208;28;20204;-75
2022/03/02 04:24:54;;;;;;;20.13;13.77;;;;;;;1.06;84.15;100016.72;4974365;28;20207;-74
2022/03/02 04:27:20;;;;;;;20.95;12.82;;;;;;;1.20;83.37;100013.94;4973913;28;20232;-74
2022/03/02 04:29:47;;;;;;;20.70;12.45;;;;;;;1.19;83.09;100010.38;4960677;28;20665;-74
2022/03/02 04:32:14;;;;;;;21.10;12.70;;;;;;;1.24;82.15;100007.66;4971184;28;20765;-74
2022/03/02 04:34:41;;;;;;;20.80;12.23;;;;;;;1.48;81.23;100002.91;4973687;28;20192;-75
2022/03/02 04:37:07;;;;;;;24.42;15.20;;;;;;;1.56;79.42;100004.56;4973929;28;20291;-75
2022/03/02 04:39:35;;;;;;;20.42;12.18;;;;;;;1.90;77.82;100013.75;4976234;28;20238;-74
2022/03/02 04:42:02;;;;;;;20.73;13.20;;;;;;;1.88;76.22;100003.19;4977222;28;20235;-76
2022/03/02 04:44:29;;;;;;;19.27;13.00;;;;;;;2.06;75.14;100004.66;4976373;28;20207;-76
2022/03/02 04:46:56;;;;;;;17.02;12.00;;;;;;;1.99;75.36;100001.22;4976518;28;20287;-76
2022/03/02 04:49:22;;;;;;;19.42;12.73;;;;;;;2.16;74.81;100006.25;4976938;28;20188;-75
2022/03/02 04:51:50;;;;;;;18.88;13.30;;;;;;;1.95;74.73;100009.28;4976880;28;20204;-74
2022/03/02 04:57:00;;;;;;;20.08;12.93;;;;;;;2.05;74.83;99989.59;4975432;28;20415;-75
2022/03/02 04:59:26;;;;;;;25.50;14.02;;;;;;;2.15;73.57;99998.28;4976895;28;20212;-75
2022/03/02 05:01:53;;;;;;;21.80;12.73;;;;;;;2.08;73.64;99995.75;4976522;28;20210;-74
2022/03/02 05:04:20;;;;;;;17.98;12.35;;;;;;;1.94;72.96;99991.56;4976920;28;20530;-75
2022/03/02 05:06:46;;;;;;;17.35;11.95;;;;;;;1.83;74.25;99989.09;4976611;28;20200;-75
2022/03/02 05:09:13;;;;;;;20.95;13.10;;;;;;;1.55;76.33;99993.97;4976439;28;20279;-75
2022/03/02 05:11:40;;;;;;;21.30;13.05;;;;;;;1.36;78.62;99988.06;4976613;28;20231;-74
2022/03/02 05:14:08;;;;;;;20.25;13.25;;;;;;;1.50;78.70;99985.19;4976034;28;20188;-75
2022/03/02 05:16:34;;;;;;;20.50;13.93;;;;;;;1.60;77.89;99977.03;4975788;28;20296;-75
2022/03/02 05:19:01;;;;;;;19.60;13.38;;;;;;;1.51;78.50;99985.16;4976658;28;20246;-75
2022/03/02 05:21:27;;;;;;;17.75;12.98;;;;;;;1.47;78.00;99986.13;4976066;28;20220;-75
2022/03/02 05:23:54;;;;;;;19.65;13.15;;;;;;;1.46;78.78;99987.00;4976517;28;20192;-75
2022/03/02 05:26:21;;;;;;;20.77;13.48;;;;;;;1.49;78.84;99983.44;4976611;28;20188;-75
2022/03/02 05:28:47;;;;;;;19.98;13.30;;;;;;;1.60;78.30;99984.13;4976100;28;20202;-75
2022/03/02 05:31:15;;;;;;;17.35;12.27;;;;;;;1.48;78.21;99982.56;4976080;28;20223;-75
2022/03/02 05:33:43;;;;;;;19.08;12.88;;;;;;;1.53;77.23;99972.75;4975850;28;20623;-76
2022/03/02 05:36:09;;;;;;;21.25;13.57;;;;;;;1.74;76.40;99975.94;4974595;28;20206;-76
2022/03/02 05:38:36;;;;;;;18.95;11.93;;;;;;;1.67;76.52;99980.47;4974531;28;20603;-75
2022/03/02 05:41:03;;;;;;;19.20;12.75;;;;;;;1.76;76.36;99968.84;4976109;28;20278;-75
2022/03/02 05:43:29;;;;;;;20.33;12.95;;;;;;;1.68;76.48;99966.31;4964636;28;20236;-76
2022/03/02 05:45:56;;;;;;;20.65;13.07;;;;;;;1.76;74.72;99966.19;4957765;28;20192;-75
2022/03/02 05:48:24;;;;;;;20.30;13.32;;;;;;;1.71;75.57;99963.63;4964446;28;20616;-75
2022/03/02 05:50:51;;;;;;;21.58;13.48;;;;;;;1.77;75.87;99965.31;4973062;28;20200;-75
2022/03/02 05:53:17;;;;;;;19.50;11.93;;;;;;;1.93;75.62;99964.13;4974564;28;20198;-75
2022/03/02 05:55:44;;;;;;;21.95;14.38;;;;;;;2.07;75.09;99966.56;4961824;28;20199;-74
2022/03/02 05:58:11;;;;;;;18.02;12.80;;;;;;;2.20;73.31;99961.91;4956358;28;20517;-75
2022/03/02 06:00:37;;;;;;;21.60;14.15;;;;;;;2.47;70.82;99966.69;4958007;28;20296;-75
2022/03/02 06:03:04;;;;;;;20.08;12.98;;;;;;;2.64;70.22;99963.69;4961161;28;20611;-74
2022/03/02 06:05:32;;;;;;;20.90;15.38;;;;;;;2.73;69.52;99973.28;4958381;28;20223;-75
2022/03/02 06:07:59;;;;;;;22.65;16.52;;;;;;;2.64;70.76;99979.66;4957621;28;20674;-75
2022/03/02 06:10:26;;;;;;;21.88;13.30;;;;;;;2.42;71.89;99987.19;4955982;29;20201;-75
2022/03/02 06:12:53;;;;;;;19.65;12.07;;;;;;;2.38;71.05;99984.63;4957626;28;20203;-75
2022/03/02 06:15:20;;;;;;;20.48;13.02;;;;;;;2.18;71.37;99980.53;4957529;28;20691;-74
2022/03/02 06:17:47;;;;;;;21.67;13.07;;;;;;;2.37;71.35;99988.16;4967095;28;20275;-75
2022/03/02 06:20:15;;;;;;;19.75;13.60;;;;;;;2.45;70.76;99987.13;4956515;29;20301;-76
2022/03/02 06:22:43;;;;;;;21.65;13.65;;;;;;;2.37;71.99;99974.88;4971029;28;20288;-76
2022/03/02 06:25:12;;;;;;;21.75;13.05;;;;;;;2.32;72.28;99976.75;4965969;28;20203;-74
2022/03/02 06:27:39;;;;;;;22.33;14.07;;;;;;;2.27;72.40;99979.47;4954890;29;20212;-74
2022/03/02 06:30:07;;;;;;;22.35;14.43;;;;;;;2.39;72.00;99981.03;4955599;29;20247;-77
2022/03/02 06:32:34;;;;;;;18.52;13.00;;;;;;;2.34;71.97;99986.44;4955231;29;20192;-75
2022/03/02 06:35:01;;;;;;;23.85;13.88;;;;;;;2.40;71.70;99989.00;4955059;29;20205;-74
2022/03/02 06:37:33;;;;;;;22.23;12.38;;;;;;;2.38;71.74;99990.78;4954607;29;20288;-76
2022/03/02 06:40:01;;;;;;;24.88;13.52;;;;;;;2.63;70.16;99996.53;4951683;29;20410;-74
2022/03/02 06:42:40;;;;;;;20.42;13.93;;;;;;;2.74;69.50;99988.34;4948697;29;20193;-76
2022/03/02 06:45:12;;;;;;;22.65;13.27;;;;;;;2.88;69.17;99988.06;4942543;29;20194;-77
2022/03/02 06:47:47;;;;;;;20.15;12.38;;;;;;;3.17;67.68;100000.75;4947625;29;20218;-76
2022/03/02 06:50:14;;;;;;;22.45;13.05;;;;;;;3.21;65.10;99990.91;4942504;29;20627;-76
2022/03/02 06:52:43;;;;;;;23.50;14.35;;;;;;;3.00;67.05;99986.91;4947611;29;20667;-76
2022/03/02 06:55:14;;;;;;;21.52;14.55;;;;;;;2.99;66.18;99988.72;4947271;29;20729;-76
2022/03/02 06:57:41;;;;;;;23.55;14.38;;;;;;;3.16;66.13;99985.69;4940363;29;20284;-76
2022/03/02 07:00:10;;;;;;;18.60;12.95;;;;;;;3.38;64.84;99994.06;4940451;29;20206;-75
2022/03/02 07:02:40;;;;;;;22.45;13.68;;;;;;;3.43;63.43;99986.84;4943123;29;20547;-76
2022/03/02 07:05:08;;;;;;;23.48;13.98;;;;;;;3.19;63.48;99998.94;4944476;29;20207;-76
2022/03/02 07:07:36;;;;;;;17.55;12.52;;;;;;;3.13;64.76;99993.75;4949185;29;20636;-75
2022/03/02 07:10:03;;;;;;;23.67;15.73;;;;;;;3.24;64.58;99990.84;4946037;29;20194;-75
2022/03/02 07:12:31;;;;;;;26.20;14.48;;;;;;;3.33;63.78;99998.63;4946671;29;20210;-75
2022/03/02 07:14:58;;;;;;;22.88;14.82;;;;;;;3.57;63.58;99991.84;4940533;29;20281;-76
2022/03/02 07:17:26;;;;;;;19.63;14.73;;;;;;;3.69;61.94;99999.56;4943642;29;20197;-75
2022/03/02 07:19:54;;;;;;;18.60;12.93;;;;;;;3.58;61.38;100000.75;4947563;29;20222;-75
2022/03/02 07:22:22;;;;;;;18.15;13.90;;;;;;;3.73;60.76;100005.69;4947227;29;20200;-74
2022/03/02 07:24:54;;;;;;;20.55;14.20;;;;;;;3.89;59.60;100001.75;4942904;29;20205;-76
2022/03/02 07:27:21;;;;;;;18.70;13.82;;;;;;;3.52;60.99;100004.41;4941521;29;20556;-77
2022/03/02 07:29:52;;;;;;;17.30;13.98;;;;;;;3.43;61.48;100005.47;4944552;29;20276;-76
2022/03/02 07:32:22;;;;;;;17.48;13.05;;;;;;;3.39;61.28;100010.91;4963325;28;20235;-75
2022/03/02 07:34:56;;;;;;;22.45;13.93;;;;;;;3.64;60.71;100012.13;4963489;28;20185;-75
2022/03/02 07:37:23;;;;;;;19.48;12.98;;;;;;;4.01;59.41;100005.91;4966576;28;20198;-76
2022/03/02 07:39:50;;;;;;;20.77;13.75;;;;;;;4.36;57.31;100001.47;4967285;28;20316;-75
2022/03/02 07:42:17;;;;;;;26.40;14.85;;;;;;;4.50;56.63;99999.31;4965640;28;20632;-76
2022/03/02 07:44:44;;;;;;;20.25;12.98;;;;;;;4.37;56.34;99997.91;4963968;28;20205;-74
2022/03/02 07:47:12;;;;;;;18.95;14.38;;;;;;;4.37;56.56;99990.75;4962113;28;20294;-74
2022/03/02 07:49:38;;;;;;;25.38;16.08;;;;;;;4.33;56.34;99996.22;4963112;28;20189;-75
2022/03/02 07:52:06;;;;;;;18.55;13.90;;;;;;;4.51;56.15;99994.84;4966042;28;20231;-75
2022/03/02 07:54:39;;;;;;;20.30;13.65;;;;;;;4.48;55.69;99987.81;4965153;28;20738;-74
2022/03/02 07:57:07;;;;;;;20.30;13.38;;;;;;;4.22;56.74;99992.94;4966583;28;20270;-74
2022/03/02 07:59:37;;;;;;;19.17;13.68;;;;;;;4.42;56.53;99992.44;4964150;28;20208;-75
2022/03/02 08:02:05;;;;;;;17.60;13.32;;;;;;;4.37;56.82;99989.91;4966842;28;20199;-76
2022/03/02 08:04:34;;;;;;;22.70;13.77;;;;;;;4.22;57.29;99988.50;4965995;28;20199;-76
2022/03/02 08:07:01;;;;;;;17.00;13.27;;;;;;;4.48;56.00;99993.16;4963804;28;20199;-76
2022/03/02 08:09:28;;;;;;;21.30;13.90;;;;;;;4.92;54.23;99990.16;4964728;28;20199;-75
2022/03/02 08:11:56;;;;;;;18.75;13.00;;;;;;;4.90;54.01;99987.53;4965870;28;20184;-76
2022/03/02 08:14:24;;;;;;;17.38;13.02;;;;;;;4.76;54.19;99982.59;4968190;28;20286;-76
2022/03/02 08:16:51;;;;;;;18.73;13.38;;;;;;;4.84;53.52;99985.06;4968592;28;20243;-75
2022/03/02 08:19:19;;;;;;;23.63;16.13;;;;;;;5.06;53.38;99984.41;4963937;28;20219;-76
2022/03/02 08:22:05;;;;;;;25.77;14.95;;;;;;;5.01;53.28;99981.88;4970165;28;20282;-75
2022/03/02 08:24:32;;;;;;;16.17;12.80;;;;;;;4.97;53.35;99988.22;4968110;28;20188;-77
2022/03/02 08:27:02;;;;;;;18.27;13.82;;;;;;;5.17;52.72;99984.97;4969737;28;20281;-75
2022/03/02 08:29:31;;;;;;;21.42;14.25;;;;;;;5.11;53.51;99980.72;4969174;28;20284;-77
2022/03/02 08:31:59;;;;;;;19.73;13.60;;;;;;;5.15;52.61;99986.81;4957843;28;20878;-75
2022/03/02 08:34:26;;;;;;;18.95;13.10;;;;;;;5.39;51.84;99971.84;4954505;29;20200;-75
2022/03/02 08:36:56;;;;;;;24.30;15.25;;;;;;;5.82;50.63;99976.69;4954748;29;20279;-76
2022/03/02 08:39:24;;;;;;;21.60;14.27;;;;;;;5.92;50.23;99987.94;4955935;29;20311;-75
2022/03/02 08:41:51;;;;;;;19.33;14.05;;;;;;;6.18;49.20;99979.09;4956092;29;20229;-74
2022/03/02 08:44:18;;;;;;;21.60;14.75;;;;;;;6.25;48.49;99983.31;4955521;29;20295;-75
2022/03/02 08:46:45;;;;;;;24.25;15.63;;;;;;;6.41;48.13;99982.78;4955231;29;20287;-76
2022/03/02 08:49:13;;;;;;;21.17;13.82;;;;;;;6.47;47.91;99983.44;4955475;29;20205;-76
2022/03/02 08:51:40;;;;;;;29.15;14.80;;;;;;;6.62;47.55;99983.81;4954266;29;20203;-75
2022/03/02 08:54:13;;;;;;;18.80;13.10;;;;;;;6.07;48.59;99981.28;4954136;29;20197;-74
2022/03/02 08:56:40;;;;;;;20.67;14.20;;;;;;;5.85;49.37;99978.38;4955112;29;20327;-75
2022/03/02 08:59:12;;;;;;;17.63;13.38;;;;;;;6.03;49.10;99977.81;4955708;29;20215;-76
2022/03/02 09:01:43;;;;;;;18.67;13.82;;;;;;;5.96;48.92;99976.28;4955033;29;21041;-76
2022/03/02 09:04:15;;;;;;;23.25;13.18;;;;;;;6.49;47.43;99964.69;4955543;29;20290;-76
2022/03/02 09:06:43;;;;;;;16.05;12.23;;;;;;;6.07;47.37;99977.72;4955071;29;20208;-74
2022/03/02 09:09:11;;;;;;;18.17;12.82;;;;;;;5.98;48.08;99985.13;4954989;29;20207;-77
2022/03/02 09:11:38;;;;;;;18.95;13.02;;;;;;;6.01;48.03;99984.13;4954680;29;20280;-75
2022/03/02 09:14:05;;;;;;;20.50;12.43;;;;;;;5.95;48.69;99981.69;4955758;29;20283;-76
2022/03/02 09:16:32;;;;;;;17.33;12.90;;;;;;;6.16;48.07;99975.59;4955805;29;20188;-76
2022/03/02 09:18:58;;;;;;;18.05;13.35;;;;;;;6.34;47.01;99976.78;4955521;28;20201;-75
2022/03/02 09:21:27;;;;;;;19.42;13.75;;;;;;;6.29;47.27;99972.50;4955518;29;20296;-76
2022/03/02 09:23:55;;;;;;;21.30;14.88;;;;;;;6.53;47.32;99974.31;4955792;28;20609;-76
2022/03/02 09:26:23;;;;;;;23.40;13.70;;;;;;;6.89;46.35;99961.41;4954785;29;20351;-75
2022/03/02 09:28:52;;;;;;;19.15;13.70;;;;;;;6.50;46.40;99966.41;4954483;29;20276;-77
2022/03/02 09:31:21;;;;;;;17.73;12.93;;;;;;;6.46;46.79;99964.75;4958583;28;20235;-74
2022/03/02 09:33:50;;;;;;;20.23;13.52;;;;;;;6.12;47.07;99951.69;4960805;28;20295;-75
2022/03/02 09:36:21;;;;;;;19.35;12.90;;;;;;;6.31;47.17;99959.94;4958764;28;20255;-76
2022/03/02 09:38:50;;;;;;;18.55;14.18;;;;;;;6.52;46.86;99953.84;4962562;28;20276;-76
2022/03/02 09:41:23;;;;;;;19.40;14.20;;;;;;;6.44;47.11;99953.25;4967279;28;20212;-76
2022/03/02 09:43:55;;;;;;;20.48;14.15;;;;;;;6.93;46.40;99954.13;4964678;28;20620;-77
2022/03/02 09:46:31;;;;;;;17.27;12.32;;;;;;;7.21;44.83;99951.31;4966588;28;20271;-74
2022/03/02 09:49:05;;;;;;;19.85;13.15;;;;;;;7.47;44.28;99944.91;4962185;28;20645;-75
2022/03/02 09:51:32;;;;;;;21.75;15.48;;;;;;;7.77;43.69;99941.91;4961616;28;20201;-76
2022/03/02 09:54:01;;;;;;;19.63;13.52;;;;;;;7.84;43.64;99942.53;4961835;28;20283;-76
2022/03/02 09:56:31;;;;;;;20.40;14.70;;;;;;;7.78;43.52;99953.50;4961521;28;20651;-77
2022/03/02 09:59:00;;;;;;;18.20;13.65;;;;;;;7.41;44.22;99949.63;4960940;28;20658;-75
2022/03/02 10:01:27;;;;;;;15.88;12.25;;;;;;;7.73;43.87;99946.53;4962727;28;20235;-77
2022/03/02 10:03:55;;;;;;;20.15;14.15;;;;;;;7.12;44.56;99948.94;4963240;28;20602;-75
2022/03/02 10:06:23;;;;;;;20.27;13.75;;;;;;;7.15;44.87;99947.97;4964092;28;20217;-76
2022/03/02 10:08:52;;;;;;;18.00;14.10;;;;;;;6.58;45.64;99947.41;4962005;28;20188;-76
2022/03/02 10:11:21;;;;;;;21.77;14.45;;;;;;;6.28;46.73;99952.91;4968193;28;20288;-76
2022/03/02 10:13:48;;;;;;;25.25;15.20;;;;;;;6.85;46.41;99949.09;4961089;28;20189;-77
2022/03/02 10:16:22;;;;;;;17.80;13.38;;;;;;;7.38;44.91;99944.41;4961946;28;20639;-76
2022/03/02 10:19:00;;;;;;;17.30;13.85;;;;;;;7.28;44.27;99952.81;4966188;28;20244;-78
2022/03/02 10:21:29;;;;;;;19.00;14.00;;;;;;;6.99;44.82;99945.03;4960193;28;20280;-77
2022/03/02 10:23:59;;;;;;;19.50;14.80;;;;;;;7.09;44.80;99946.41;4960426;28;20199;-74
2022/03/02 10:26:27;;;;;;;22.05;14.52;;;;;;;7.40;44.12;99954.13;4962408;28;20271;-74
2022/03/02 10:29:00;;;;;;;19.58;13.35;;;;;;;7.64;44.28;99952.28;4966906;28;20200;-77
2022/03/02 10:31:44;;;;;;;20.08;13.50;;;;;;;8.17;42.69;99939.38;4967736;28;20605;-77
2022/03/02 10:34:36;;;;;;;18.65;13.93;;;;;;;7.91;42.47;99942.22;4966368;28;20200;-76
2022/03/02 10:37:32;;;;;;;18.35;13.40;;;;;;;7.32;43.84;99935.66;4967242;28;20224;-75
2022/03/02 10:40:05;;;;;;;15.98;12.98;;;;;;;7.29;43.58;99940.28;4963243;28;20227;-78
2022/03/02 10:42:35;;;;;;;18.90;13.77;;;;;;;7.35;43.74;99947.19;4965644;28;20212;-77
2022/03/02 10:45:17;;;;;;;17.27;13.43;;;;;;;7.96;42.94;99950.09;4967494;28;20193;-76
2022/03/02 10:47:55;;;;;;;17.80;13.00;;;;;;;7.68;42.89;99945.84;4965852;28;20271;-78
2022/03/02 10:50:22;;;;;;;18.23;13.88;;;;;;;7.49;43.08;99944.84;4968007;28;20188;-75
2022/03/02 10:52:50;;;;;;;20.45;14.65;;;;;;;7.59;43.16;99948.03;4968166;28;20295;-76
2022/03/02 10:55:17;;;;;;;18.52;14.73;;;;;;;7.45;42.89;99943.22;4967247;28;20199;-76
2022/03/02 10:57:47;;;;;;;19.35;14.18;;;;;;;7.55;42.56;99936.53;4966669;28;20278;-76
2022/03/02 11:00:17;;;;;;;16.55;12.95;;;;;;;7.75;42.72;99930.38;4966455;28;20211;-77
2022/03/02 11:02:45;;;;;;;17.80;13.25;;;;;;;7.44;43.28;99928.97;4965708;28;20227;-78
2022/03/02 11:05:16;;;;;;;18.15;14.60;;;;;;;7.90;42.73;99931.56;4964833;28;20252;-76
2022/03/02 11:07:43;;;;;;;21.05;14.77;;;;;;;8.06;42.70;99926.41;4967367;28;20212;-74
2022/03/02 11:10:12;;;;;;;18.05;13.65;;;;;;;8.26;42.37;99928.25;4967389;28;20284;-77
2022/03/02 11:12:44;;;;;;;25.42;15.60;;;;;;;8.24;42.54;99922.94;4963585;28;20197;-75
2022/03/02 11:15:13;;;;;;;21.27;13.75;;;;;;;8.11;42.02;99922.59;4964600;28;20195;-74
2022/03/02 11:17:51;;;;;;;21.83;14.00;;;;;;;8.18;42.38;99930.38;4969377;28;20193;-76
2022/03/02 11:20:20;;;;;;;17.50;13.23;;;;;;;8.60;41.46;99919.63;4967545;28;20199;-74
2022/03/02 11:22:53;;;;;;;23.20;13.45;;;;;;;9.33;39.53;99920.69;4969581;28;20204;-76
2022/03/02 11:25:20;;;;;;;17.88;12.52;;;;;;;9.72;39.31;99914.34;4966908;28;20188;-74
2022/03/02 11:27:46;;;;;;;17.52;13.73;;;;;;;9.93;37.90;99916.91;4966197;28;20202;-75
2022/03/02 11:30:17;;;;;;;20.38;14.80;;;;;;;9.78;38.74;99907.78;4967920;28;20194;-76